Check out our new BloomSky Weather System.

Active alerts


No alerts


Thunder radar  blitzortung!


Rain radar more information rain snow radar


Visit our other weather sites:

Template documentation
and downloads

And another site



Weather Underground History page Text

Daily Summary for April 8, 2017 Units:  Metric    English   Both
« Previous Day
Next Day »
Daily Weekly Monthly Yearly Custom
  High: Low: Average:
Temperature: 27.7 °C 12.3 °C 20.8 °C
Dew Point: 16.4 °C 11.1 °C 13.8 °C
Humidity: 96 % 43 % 67 %
Wind Speed: 27.4 km/h 0 km/h 6.8 km/h
Wind Gust: 33.8 km/h - -
Wind:- - SSE
Pressure: 1019.5 hPa 1013.8 hPa -
Precipitation: 0 mm    
Historical Graphs
 
 
Tabular Data for April 8, 2017
Time Temperature Dew Point Pressure Wind Wind Speed Wind Gust Humidity Rainfall Rate (Hourly)
00:04 18.4 °C 11.2 °C 1019.5 hPa SSW 3.2 km/h 6.4 km/h 63 % 0 mm
00:09 18.3 °C 11.1 °C 1019.5 hPa SSW 3.2 km/h 6.4 km/h 63 % 0 mm
00:19 18.1 °C 11.4 °C 1019.2 hPa South 4.8 km/h 6.4 km/h 65 % 0 mm
00:24 18 °C 11.3 °C 1019.2 hPa South 4.8 km/h 6.4 km/h 65 % 0 mm
00:29 17.9 °C 11.5 °C 1019.2 hPa SSW 3.2 km/h 6.4 km/h 66 % 0 mm
00:34 17.9 °C 11.5 °C 1019.2 hPa SSW 3.2 km/h 6.4 km/h 66 % 0 mm
00:39 17.9 °C 11.7 °C 1019.2 hPa South 3.2 km/h 6.4 km/h 67 % 0 mm
00:44 17.8 °C 11.6 °C 1018.8 hPa Calm   6.4 km/h 67 % 0 mm
00:49 17.7 °C 11.7 °C 1019.2 hPa SSW 4.8 km/h 6.4 km/h 68 % 0 mm
00:54 17.6 °C 11.6 °C 1019.2 hPa SSW 1.6 km/h 6.4 km/h 68 % 0 mm
00:59 17.6 °C 11.6 °C 1019.2 hPa Calm   4.8 km/h 68 % 0 mm
01:04 17.5 °C 11.7 °C 1019.2 hPa South 1.6 km/h 4.8 km/h 69 % 0 mm
01:09 17.4 °C 11.7 °C 1019.2 hPa South 1.6 km/h 3.2 km/h 69 % 0 mm
01:14 17.3 °C 11.8 °C 1019.2 hPa SSW 1.6 km/h 3.2 km/h 70 % 0 mm
01:19 17.2 °C 11.7 °C 1019.2 hPa SSW 1.6 km/h 3.2 km/h 70 % 0 mm
01:24 17.1 °C 11.8 °C 1018.8 hPa Calm   3.2 km/h 71 % 0 mm
01:29 16.9 °C 11.8 °C 1018.8 hPa Calm   3.2 km/h 72 % 0 mm
01:34 16.8 °C 11.9 °C 1018.8 hPa SSW 1.6 km/h 3.2 km/h 73 % 0 mm
01:39 16.6 °C 11.5 °C 1018.8 hPa Calm   3.2 km/h 72 % 0 mm
01:44 16.4 °C 11.5 °C 1018.8 hPa SSW 1.6 km/h 3.2 km/h 73 % 0 mm
01:49 16.2 °C 11.6 °C 1018.8 hPa Calm   3.2 km/h 74 % 0 mm
01:54 16 °C 11.6 °C 1018.8 hPa Calm   1.6 km/h 75 % 0 mm
01:59 15.8 °C 11.6 °C 1018.8 hPa Calm   1.6 km/h 76 % 0 mm
02:04 15.7 °C 11.7 °C 1018.8 hPa Calm   1.6 km/h 77 % 0 mm
02:09 15.4 °C 11.6 °C 1018.5 hPa Calm   1.6 km/h 78 % 0 mm
02:14 15.2 °C 11.4 °C 1018.5 hPa Calm   1.6 km/h 78 % 0 mm
02:19 15 °C 11.6 °C 1018.5 hPa Calm     80 % 0 mm
02:24 14.9 °C 11.7 °C 1018.5 hPa Calm     81 % 0 mm
02:29 14.7 °C 11.7 °C 1018.5 hPa Calm     82 % 0 mm
02:34 14.6 °C 11.6 °C 1018.5 hPa Calm     82 % 0 mm
02:39 14.4 °C 11.7 °C 1018.5 hPa Calm     84 % 0 mm
02:44 14.3 °C 11.6 °C 1018.5 hPa Calm     84 % 0 mm
02:49 14.2 °C 11.7 °C 1018.5 hPa Calm     85 % 0 mm
02:54 14.1 °C 11.6 °C 1018.5 hPa Calm     85 % 0 mm
02:59 14 °C 11.5 °C 1018.5 hPa Calm     85 % 0 mm
03:04 13.9 °C 11.4 °C 1018.5 hPa Calm     85 % 0 mm
03:09 13.8 °C 11.5 °C 1018.5 hPa Calm     86 % 0 mm
03:14 13.7 °C 11.4 °C 1018.2 hPa Calm     86 % 0 mm
03:19 13.6 °C 11.3 °C 1018.2 hPa Calm     86 % 0 mm
03:24 13.6 °C 11.5 °C 1018.2 hPa Calm     87 % 0 mm
03:29 13.4 °C 11.3 °C 1018.2 hPa Calm     87 % 0 mm
03:34 13.6 °C 11.8 °C 1018.2 hPa Calm     89 % 0 mm
03:44 13.7 °C 11.9 °C 1018.2 hPa Calm     89 % 0 mm
03:49 13.6 °C 11.8 °C 1017.8 hPa Calm     89 % 0 mm
03:54 13.6 °C 11.8 °C 1017.8 hPa Calm     89 % 0 mm
03:59 13.5 °C 11.7 °C 1017.8 hPa Calm     89 % 0 mm
04:04 13.4 °C 11.8 °C 1017.8 hPa Calm     90 % 0 mm
04:14 13.3 °C 11.7 °C 1017.8 hPa Calm     90 % 0 mm
04:19 13.3 °C 11.9 °C 1017.8 hPa Calm     91 % 0 mm
04:24 13.2 °C 11.8 °C 1017.8 hPa Calm     91 % 0 mm
04:29 13.2 °C 11.8 °C 1017.8 hPa Calm     91 % 0 mm
04:34 13.1 °C 11.7 °C 1017.8 hPa Calm     91 % 0 mm
04:39 12.9 °C 11.5 °C 1017.8 hPa Calm     91 % 0 mm
04:44 12.8 °C 11.4 °C 1017.8 hPa Calm     91 % 0 mm
04:49 12.8 °C 11.5 °C 1017.8 hPa Calm     92 % 0 mm
04:54 12.8 °C 11.5 °C 1017.8 hPa Calm     92 % 0 mm
04:59 12.8 °C 11.5 °C 1017.8 hPa Calm     92 % 0 mm
05:04 12.7 °C 11.4 °C 1017.8 hPa Calm     92 % 0 mm
05:09 12.7 °C 11.4 °C 1017.8 hPa Calm     92 % 0 mm
05:14 12.7 °C 11.6 °C 1017.5 hPa Calm     93 % 0 mm
05:19 12.9 °C 12 °C 1017.5 hPa Calm     94 % 0 mm
05:24 13.1 °C 12 °C 1017.8 hPa Calm   1.6 km/h 93 % 0 mm
05:29 12.9 °C 11.8 °C 1017.8 hPa Calm   1.6 km/h 93 % 0 mm
05:34 12.9 °C 11.8 °C 1017.8 hPa Calm   1.6 km/h 93 % 0 mm
05:39 12.8 °C 11.7 °C 1017.8 hPa Calm   1.6 km/h 93 % 0 mm
05:44 12.7 °C 11.6 °C 1017.8 hPa Calm   1.6 km/h 93 % 0 mm
05:49 12.4 °C 11.3 °C 1017.8 hPa Calm   1.6 km/h 93 % 0 mm
05:54 12.3 °C 11.2 °C 1017.8 hPa Calm     93 % 0 mm
05:59 12.4 °C 11.3 °C 1017.8 hPa Calm     93 % 0 mm
06:04 12.6 °C 11.7 °C 1017.8 hPa Calm     94 % 0 mm
06:09 12.6 °C 11.7 °C 1017.8 hPa Calm     94 % 0 mm
06:14 12.6 °C 11.7 °C 1017.8 hPa Calm     94 % 0 mm
06:19 12.5 °C 11.6 °C 1017.5 hPa Calm     94 % 0 mm
06:25 12.6 °C 11.7 °C 1017.8 hPa Calm     94 % 0 mm
06:30 12.6 °C 11.7 °C 1017.8 hPa Calm     94 % 0 mm
06:35 12.7 °C 11.9 °C 1017.8 hPa Calm     95 % 0 mm
06:40 12.7 °C 11.8 °C 1017.8 hPa Calm     94 % 0 mm
06:45 12.7 °C 11.8 °C 1017.5 hPa Calm     94 % 0 mm
06:50 12.7 °C 11.9 °C 1017.8 hPa Calm     95 % 0 mm
06:55 12.8 °C 12 °C 1017.5 hPa Calm     95 % 0 mm
07:00 13.1 °C 12.3 °C 1017.8 hPa Calm     95 % 0 mm
07:05 13.1 °C 12.3 °C 1017.8 hPa Calm   1.6 km/h 95 % 0 mm
07:10 13.1 °C 12.3 °C 1017.8 hPa Calm   1.6 km/h 95 % 0 mm
07:15 13.1 °C 12.3 °C 1017.8 hPa Calm   1.6 km/h 95 % 0 mm
07:20 13.1 °C 12.3 °C 1017.8 hPa Calm   1.6 km/h 95 % 0 mm
07:25 13.2 °C 12.4 °C 1017.8 hPa Calm     95 % 0 mm
07:30 13.3 °C 12.5 °C 1017.8 hPa Calm   1.6 km/h 95 % 0 mm
07:35 13.4 °C 12.6 °C 1017.8 hPa Calm   1.6 km/h 95 % 0 mm
07:40 13.5 °C 12.7 °C 1017.8 hPa Calm     95 % 0 mm
07:45 13.6 °C 12.8 °C 1017.8 hPa Calm     95 % 0 mm
07:50 13.9 °C 13.1 °C 1017.8 hPa Calm     95 % 0 mm
08:00 15.2 °C 14.6 °C 1018.2 hPa ESE 1.6 km/h 4.8 km/h 96 % 0 mm
08:05 15.7 °C 14.7 °C 1018.2 hPa SSE 1.6 km/h 4.8 km/h 94 % 0 mm
08:10 16.3 °C 15.2 °C 1018.2 hPa South 3.2 km/h 4.8 km/h 93 % 0 mm
08:15 16.9 °C 15.4 °C 1018.2 hPa SE 3.2 km/h 4.8 km/h 91 % 0 mm
08:20 17.4 °C 15.6 °C 1018.2 hPa SSE 1.6 km/h 6.4 km/h 89 % 0 mm
08:25 17.8 °C 15.6 °C 1018.2 hPa South 3.2 km/h 6.4 km/h 87 % 0 mm
08:30 18.3 °C 15.5 °C 1018.2 hPa SSE 8 km/h 9.7 km/h 84 % 0 mm
08:35 18.6 °C 15.5 °C 1017.8 hPa SSE 3.2 km/h 9.7 km/h 82 % 0 mm
08:40 18.8 °C 15.5 °C 1018.2 hPa South 3.2 km/h 12.9 km/h 81 % 0 mm
08:45 19.3 °C 15.8 °C 1018.2 hPa South 4.8 km/h 12.9 km/h 80 % 0 mm
08:50 19.6 °C 15.7 °C 1018.2 hPa SSE 6.4 km/h 12.9 km/h 78 % 0 mm
08:55 19.9 °C 15.5 °C 1018.2 hPa SE 11.3 km/h 11.3 km/h 76 % 0 mm
09:00 20.2 °C 15.8 °C 1018.2 hPa South 8 km/h 11.3 km/h 76 % 0 mm
09:05 20.6 °C 15.8 °C 1018.2 hPa SSE 6.4 km/h 12.9 km/h 74 % 0 mm
09:10 21 °C 16.4 °C 1018.2 hPa SW 6.4 km/h 12.9 km/h 75 % 0 mm
09:15 21.4 °C 16.1 °C 1018.2 hPa South 9.7 km/h 12.9 km/h 72 % 0 mm
09:20 21.6 °C 16.1 °C 1018.5 hPa East 4.8 km/h 12.9 km/h 71 % 0 mm
09:25 21.9 °C 16 °C 1018.5 hPa South 6.4 km/h 16.1 km/h 69 % 0 mm
09:30 22 °C 16 °C 1018.5 hPa SE 8 km/h 19.3 km/h 69 % 0 mm
09:35 22.2 °C 16 °C 1018.5 hPa South 9.7 km/h 19.3 km/h 68 % 0 mm
09:40 22.4 °C 16 °C 1018.5 hPa South 8 km/h 19.3 km/h 67 % 0 mm
09:45 22.6 °C 16.2 °C 1018.5 hPa SE 4.8 km/h 16.1 km/h 67 % 0 mm
09:50 22.7 °C 16 °C 1018.5 hPa SSE 9.7 km/h 16.1 km/h 66 % 0 mm
09:55 22.8 °C 15.9 °C 1018.5 hPa SSW 11.3 km/h 19.3 km/h 65 % 0 mm
10:00 23.1 °C 16.4 °C 1018.5 hPa SSE 8 km/h 19.3 km/h 66 % 0 mm
10:10 23.2 °C 15.5 °C 1018.8 hPa South 6.4 km/h 24.1 km/h 62 % 0 mm
10:15 23.3 °C 15.6 °C 1018.5 hPa SE 14.5 km/h 24.1 km/h 62 % 0 mm
10:20 23.3 °C 15.6 °C 1018.5 hPa SSE 11.3 km/h 20.9 km/h 62 % 0 mm
10:25 23.6 °C 16.1 °C 1018.5 hPa SW 9.7 km/h 20.9 km/h 63 % 0 mm
10:30 23.8 °C 15.6 °C 1018.5 hPa South 12.9 km/h 20.9 km/h 60 % 0 mm
10:35 23.9 °C 15.7 °C 1018.8 hPa SSW 16.1 km/h 22.5 km/h 60 % 0 mm
10:40 24.1 °C 15.6 °C 1018.8 hPa ENE 8 km/h 22.5 km/h 59 % 0 mm
10:45 24.2 °C 15.7 °C 1018.8 hPa South 25.7 km/h 25.7 km/h 59 % 0 mm
10:50 24.3 °C 15.8 °C 1018.8 hPa SW 9.7 km/h 25.7 km/h 59 % 0 mm
10:55 24.5 °C 16 °C 1018.8 hPa SSE 3.2 km/h 25.7 km/h 59 % 0 mm
10:56 24.6 °C 16.3 °C 1018.8 hPa WSW 4.8 km/h 25.7 km/h 60 % 0 mm
11:06 24.7 °C 15.3 °C 1018.8 hPa WSW 8 km/h 24.1 km/h 56 % 0 mm
11:11 24.7 °C 14.8 °C 1018.8 hPa SSE 12.9 km/h 25.7 km/h 54 % 0 mm
11:16 24.7 °C 15.1 °C 1018.8 hPa South 16.1 km/h 25.7 km/h 55 % 0 mm
11:21 24.7 °C 15.3 °C 1018.8 hPa South 9.7 km/h 25.7 km/h 56 % 0 mm
11:26 24.9 °C 14.7 °C 1018.8 hPa SW 9.7 km/h 25.7 km/h 53 % 0 mm
11:31 24.9 °C 15 °C 1018.8 hPa SSE 11.3 km/h 25.7 km/h 54 % 0 mm
11:36 25.2 °C 14.9 °C 1018.8 hPa South 24.1 km/h 24.1 km/h 53 % 0 mm
11:41 25.2 °C 15.5 °C 1018.8 hPa SW 9.7 km/h 29 km/h 55 % 0 mm
11:46 25.2 °C 14.3 °C 1018.8 hPa SSE 12.9 km/h 29 km/h 51 % 0 mm
11:51 25.1 °C 14.3 °C 1018.8 hPa South 4.8 km/h 29 km/h 51 % 0 mm
11:56 25.3 °C 15.3 °C 1018.8 hPa South 16.1 km/h 22.5 km/h 54 % 0 mm
12:01 25.4 °C 15.1 °C 1018.5 hPa SSE 9.7 km/h 25.7 km/h 53 % 0 mm
12:06 25.5 °C 14.9 °C 1018.5 hPa South 12.9 km/h 25.7 km/h 52 % 0 mm
12:11 25.4 °C 14.2 °C 1018.5 hPa SSE 11.3 km/h 25.7 km/h 50 % 0 mm
12:16 25.5 °C 14 °C 1018.5 hPa SSW 14.5 km/h 25.7 km/h 49 % 0 mm
12:18 25.5 °C 14.9 °C 1018.5 hPa SSE 11.3 km/h 25.7 km/h 52 % 0 mm
12:23 25.6 °C 14.7 °C 1018.5 hPa South 12.9 km/h 25.7 km/h 51 % 0 mm
12:28 25.9 °C 15 °C 1018.5 hPa SSE 12.9 km/h 25.7 km/h 51 % 0 mm
12:33 25.9 °C 14.7 °C 1018.2 hPa SSE 16.1 km/h 24.1 km/h 50 % 0 mm
12:38 25.9 °C 14.4 °C 1018.2 hPa SE 12.9 km/h 20.9 km/h 49 % 0 mm
12:43 26 °C 13.8 °C 1018.2 hPa South 11.3 km/h 20.9 km/h 47 % 0 mm
12:48 26.1 °C 14.5 °C 1018.2 hPa ESE 27.4 km/h 27.4 km/h 49 % 0 mm
12:53 26.2 °C 15.3 °C 1017.8 hPa SSE 6.4 km/h 30.6 km/h 51 % 0 mm
12:58 26.3 °C 14.7 °C 1017.8 hPa SSE 9.7 km/h 30.6 km/h 49 % 0 mm
13:03 26.5 °C 14.9 °C 1017.8 hPa SE 11.3 km/h 30.6 km/h 49 % 0 mm
13:08 26.6 °C 15.3 °C 1017.8 hPa SE 14.5 km/h 25.7 km/h 50 % 0 mm
13:13 26.7 °C 14.5 °C 1017.5 hPa ESE 12.9 km/h 25.7 km/h 47 % 0 mm
13:18 26.5 °C 14.9 °C 1017.5 hPa SSE 8 km/h 25.7 km/h 49 % 0 mm
13:23 26.8 °C 14.5 °C 1017.2 hPa SSE 11.3 km/h 25.7 km/h 47 % 0 mm
13:28 27 °C 14.1 °C 1017.2 hPa SSE 16.1 km/h 25.7 km/h 45 % 0 mm
13:33 26.8 °C 14.2 °C 1017.2 hPa SSE 8 km/h 33.8 km/h 46 % 0 mm
13:38 26.9 °C 15.3 °C 1017.2 hPa South 16.1 km/h 33.8 km/h 49 % 0 mm
13:43 27.1 °C 14.5 °C 1017.2 hPa SW 8 km/h 33.8 km/h 46 % 0 mm
13:48 27 °C 14.7 °C 1017.2 hPa SE 20.9 km/h 24.1 km/h 47 % 0 mm
13:53 26.9 °C 14.6 °C 1017.2 hPa SSW 12.9 km/h 20.9 km/h 47 % 0 mm
13:58 27.1 °C 14.5 °C 1017.2 hPa SSW 12.9 km/h 24.1 km/h 46 % 0 mm
14:03 27.1 °C 14.5 °C 1017.2 hPa SSW 12.9 km/h 24.1 km/h 46 % 0 mm
14:08 26.9 °C 14 °C 1016.8 hPa SW 24.1 km/h 27.4 km/h 45 % 0 mm
14:13 27 °C 14.1 °C 1016.8 hPa SSW 19.3 km/h 27.4 km/h 45 % 0 mm
14:20 27.1 °C 14.1 °C 1016.8 hPa SSE 16.1 km/h 32.2 km/h 45 % 0 mm
14:25 27.2 °C 15.2 °C 1016.8 hPa SSE 4.8 km/h 32.2 km/h 48 % 0 mm
14:30 27.7 °C 14.7 °C 1016.8 hPa SE 6.4 km/h 22.5 km/h 45 % 0 mm
14:35 27.4 °C 14.4 °C 1016.5 hPa SSE 9.7 km/h 27.4 km/h 45 % 0 mm
14:40 27.1 °C 15.1 °C 1016.5 hPa South 6.4 km/h 27.4 km/h 48 % 0 mm
14:42 27.2 °C 15.2 °C 1016.5 hPa SSE 8 km/h 27.4 km/h 48 % 0 mm
14:47 27.5 °C 14.5 °C 1016.5 hPa South 9.7 km/h 27.4 km/h 45 % 0 mm
14:52 27.7 °C 15 °C 1016.1 hPa SE 6.4 km/h 17.7 km/h 46 % 0 mm
14:57 27.3 °C 13.6 °C 1016.1 hPa SE 8 km/h 29 km/h 43 % 0 mm
15:02 27.2 °C 13.9 °C 1016.1 hPa SSW 12.9 km/h 29 km/h 44 % 0 mm
15:07 27.1 °C 14.1 °C 1016.1 hPa ESE 17.7 km/h 29 km/h 45 % 0 mm
15:12 27.2 °C 15.2 °C 1016.1 hPa SSW 12.9 km/h 27.4 km/h 48 % 0 mm
15:17 27.6 °C 14.9 °C 1015.8 hPa South 3.2 km/h 27.4 km/h 46 % 0 mm
15:22 27.6 °C 14.9 °C 1015.8 hPa WSW 4.8 km/h 25.7 km/h 46 % 0 mm
15:27 27.4 °C 14.8 °C 1015.8 hPa South 11.3 km/h 25.7 km/h 46 % 0 mm
15:32 27.3 °C 14.7 °C 1015.8 hPa South 8 km/h 25.7 km/h 46 % 0 mm
15:37 26.9 °C 14.6 °C 1015.5 hPa SSW 9.7 km/h 25.7 km/h 47 % 0 mm
15:42 26.9 °C 14.3 °C 1015.5 hPa SSE 12.9 km/h 25.7 km/h 46 % 0 mm
15:47 27.2 °C 14.9 °C 1015.5 hPa ESE 9.7 km/h 25.7 km/h 47 % 0 mm
15:52 27.4 °C 15.4 °C 1015.5 hPa SE 6.4 km/h 22.5 km/h 48 % 0 mm
15:57 27.5 °C 14.8 °C 1015.1 hPa SE 6.4 km/h 25.7 km/h 46 % 0 mm
16:02 27.7 °C 14.7 °C 1015.1 hPa SSW 12.9 km/h 25.7 km/h 45 % 0 mm
16:07 27.5 °C 14.5 °C 1014.8 hPa SSE 12.9 km/h 25.7 km/h 45 % 0 mm
16:12 27.4 °C 14.1 °C 1015.1 hPa SSE 16.1 km/h 20.9 km/h 44 % 0 mm
16:17 27.2 °C 14.6 °C 1014.8 hPa SSE 14.5 km/h 24.1 km/h 46 % 0 mm
16:22 27.2 °C 14.6 °C 1014.8 hPa ESE 6.4 km/h 27.4 km/h 46 % 0 mm
16:27 27.1 °C 13.8 °C 1014.8 hPa South 16.1 km/h 27.4 km/h 44 % 0 mm
16:32 27.1 °C 14.5 °C 1014.8 hPa South 9.7 km/h 27.4 km/h 46 % 0 mm
16:37 27.1 °C 14.1 °C 1014.4 hPa SSE 9.7 km/h 22.5 km/h 45 % 0 mm
16:42 27.2 °C 14.2 °C 1014.4 hPa SSE 8 km/h 22.5 km/h 45 % 0 mm
16:47 27.3 °C 14 °C 1014.4 hPa South 6.4 km/h 22.5 km/h 44 % 0 mm
16:52 27.1 °C 14.5 °C 1014.4 hPa SSW 9.7 km/h 22.5 km/h 46 % 0 mm
16:57 27.1 °C 14.1 °C 1014.4 hPa ESE 16.1 km/h 22.5 km/h 45 % 0 mm
17:00 27.1 °C 14.5 °C 1014.4 hPa SW 16.1 km/h 22.5 km/h 46 % 0 mm
17:05 26.9 °C 14 °C 1014.1 hPa SSW 8 km/h 22.5 km/h 45 % 0 mm
17:10 26.9 °C 14.3 °C 1014.1 hPa South 6.4 km/h 24.1 km/h 46 % 0 mm
17:15 26.9 °C 14 °C 1014.1 hPa SE 12.9 km/h 24.1 km/h 45 % 0 mm
17:20 26.9 °C 14 °C 1013.8 hPa SSE 11.3 km/h 24.1 km/h 45 % 0 mm
17:25 26.6 °C 14 °C 1013.8 hPa SE 20.9 km/h 24.1 km/h 46 % 0 mm
17:30 26.5 °C 14.3 °C 1013.8 hPa South 14.5 km/h 29 km/h 47 % 0 mm
17:35 26.5 °C 14.3 °C 1013.8 hPa East 8 km/h 29 km/h 47 % 0 mm
17:40 26.4 °C 14.2 °C 1013.8 hPa SE 12.9 km/h 29 km/h 47 % 0 mm
17:45 26.4 °C 14.5 °C 1013.8 hPa SE 9.7 km/h 24.1 km/h 48 % 0 mm
17:50 26.3 °C 14.7 °C 1013.8 hPa SE 12.9 km/h 24.1 km/h 49 % 0 mm
17:55 26.2 °C 14.6 °C 1013.8 hPa SSE 11.3 km/h 24.1 km/h 49 % 0 mm
18:00 26.1 °C 14.5 °C 1013.8 hPa ESE 11.3 km/h 29 km/h 49 % 0 mm
18:06 25.8 °C 14.6 °C 1013.8 hPa SSE 17.7 km/h 29 km/h 50 % 0 mm
18:11 25.7 °C 14.8 °C 1013.8 hPa SE 16.1 km/h 29 km/h 51 % 0 mm
18:16 25.7 °C 15.1 °C 1013.8 hPa SSE 16.1 km/h 25.7 km/h 52 % 0 mm
18:21 25.6 °C 14.7 °C 1013.8 hPa ESE 20.9 km/h 25.7 km/h 51 % 0 mm
18:26 25.4 °C 14.5 °C 1013.8 hPa ESE 12.9 km/h 29 km/h 51 % 0 mm
18:31 25.3 °C 14.7 °C 1013.8 hPa SSW 14.5 km/h 29 km/h 52 % 0 mm
18:36 25.2 °C 14.6 °C 1014.1 hPa SE 6.4 km/h 29 km/h 52 % 0 mm
18:41 25.1 °C 14.6 °C 1014.1 hPa SE 14.5 km/h 27.4 km/h 52 % 0 mm
18:46 24.8 °C 14.6 °C 1014.1 hPa SSW 11.3 km/h 27.4 km/h 53 % 0 mm
18:51 24.7 °C 14.5 °C 1014.1 hPa SSW 9.7 km/h 25.7 km/h 53 % 0 mm
18:56 24.6 °C 14.7 °C 1014.1 hPa SSE 11.3 km/h 27.4 km/h 54 % 0 mm
19:01 24.5 °C 14.6 °C 1014.1 hPa SE 16.1 km/h 27.4 km/h 54 % 0 mm
19:06 24.3 °C 14.4 °C 1014.1 hPa SE 12.9 km/h 27.4 km/h 54 % 0 mm
19:11 24.2 °C 14.6 °C 1014.1 hPa SSE 4.8 km/h 24.1 km/h 55 % 0 mm
19:16 23.9 °C 14.3 °C 1014.1 hPa South 6.4 km/h 24.1 km/h 55 % 0 mm
19:21 23.8 °C 14.5 °C 1014.1 hPa SW 14.5 km/h 20.9 km/h 56 % 0 mm
19:26 23.6 °C 14.3 °C 1014.4 hPa SE 14.5 km/h 22.5 km/h 56 % 0 mm
19:31 23.4 °C 14.1 °C 1014.4 hPa SSW 6.4 km/h 22.5 km/h 56 % 0 mm
19:36 23.3 °C 14.3 °C 1014.4 hPa South 4.8 km/h 22.5 km/h 57 % 0 mm
19:41 23.2 °C 14.2 °C 1014.4 hPa South 12.9 km/h 24.1 km/h 57 % 0 mm
19:46 23 °C 14.3 °C 1014.4 hPa SE 12.9 km/h 24.1 km/h 58 % 0 mm
19:51 22.9 °C 14.2 °C 1014.4 hPa SSW 6.4 km/h 24.1 km/h 58 % 0 mm
19:56 22.8 °C 14.1 °C 1014.4 hPa ESE 8 km/h 24.1 km/h 58 % 0 mm
20:01 22.7 °C 14.3 °C 1014.4 hPa South 9.7 km/h 22.5 km/h 59 % 0 mm
20:06 22.6 °C 14.2 °C 1014.4 hPa SSW 9.7 km/h 22.5 km/h 59 % 0 mm
20:11 22.6 °C 14.2 °C 1014.4 hPa SSE 16.1 km/h 25.7 km/h 59 % 0 mm
20:16 22.4 °C 14.3 °C 1014.4 hPa SE 11.3 km/h 25.7 km/h 60 % 0 mm
20:21 22.3 °C 14.2 °C 1014.4 hPa SSW 8 km/h 25.7 km/h 60 % 0 mm
20:26 22.2 °C 14.3 °C 1014.4 hPa SE 6.4 km/h 19.3 km/h 61 % 0 mm
20:31 22.2 °C 14.3 °C 1014.4 hPa SSE 16.1 km/h 20.9 km/h 61 % 0 mm
20:36 22.2 °C 14.3 °C 1014.4 hPa SSE 8 km/h 20.9 km/h 61 % 0 mm
20:41 22 °C 14.4 °C 1014.4 hPa SSE 11.3 km/h 20.9 km/h 62 % 0 mm
20:46 21.9 °C 14.3 °C 1014.4 hPa SE 8 km/h 19.3 km/h 62 % 0 mm
20:51 21.8 °C 14.4 °C 1014.4 hPa SSE 9.7 km/h 16.1 km/h 63 % 0 mm
20:56 21.7 °C 14.3 °C 1014.4 hPa ESE 11.3 km/h 17.7 km/h 63 % 0 mm
21:01 21.7 °C 14.3 °C 1014.8 hPa SE 4.8 km/h 19.3 km/h 63 % 0 mm
21:06 21.6 °C 14.5 °C 1014.8 hPa ESE 6.4 km/h 19.3 km/h 64 % 0 mm
21:16 21.4 °C 14.3 °C 1014.8 hPa SE 4.8 km/h 17.7 km/h 64 % 0 mm
21:21 21.4 °C 14.5 °C 1014.8 hPa SE 14.5 km/h 16.1 km/h 65 % 0 mm
21:26 21.3 °C 14.5 °C 1015.1 hPa ESE 9.7 km/h 16.1 km/h 65 % 0 mm
21:31 21.3 °C 14.5 °C 1015.1 hPa South 4.8 km/h 16.1 km/h 65 % 0 mm
21:36 21.2 °C 14.4 °C 1015.1 hPa East 6.4 km/h 16.1 km/h 65 % 0 mm
21:41 21.1 °C 14.5 °C 1015.1 hPa SSE 11.3 km/h 14.5 km/h 66 % 0 mm
21:46 21.1 °C 14.5 °C 1015.1 hPa SE 8 km/h 14.5 km/h 66 % 0 mm
21:51 21 °C 14.4 °C 1015.1 hPa ESE 3.2 km/h 19.3 km/h 66 % 0 mm
21:56 20.9 °C 14.5 °C 1015.1 hPa South 11.3 km/h 19.3 km/h 67 % 0 mm
22:01 20.9 °C 14.5 °C 1015.1 hPa SE 6.4 km/h 19.3 km/h 67 % 0 mm
22:06 20.8 °C 14.4 °C 1015.5 hPa SE 8 km/h 12.9 km/h 67 % 0 mm
22:11 20.7 °C 14.6 °C 1015.5 hPa SSE 3.2 km/h 12.9 km/h 68 % 0 mm
22:16 20.6 °C 14.5 °C 1015.5 hPa SSE 4.8 km/h 11.3 km/h 68 % 0 mm
22:21 20.5 °C 14.6 °C 1015.5 hPa South 6.4 km/h 9.7 km/h 69 % 0 mm
22:26 20.4 °C 14.5 °C 1015.5 hPa South 4.8 km/h 9.7 km/h 69 % 0 mm
22:31 20.4 °C 14.7 °C 1015.5 hPa SSE 8 km/h 9.7 km/h 70 % 0 mm
22:36 20.3 °C 14.6 °C 1015.5 hPa SSE 4.8 km/h 11.3 km/h 70 % 0 mm
22:41 20.3 °C 14.6 °C 1015.5 hPa SSE 4.8 km/h 11.3 km/h 70 % 0 mm
22:46 20.2 °C 14.6 °C 1015.5 hPa SSE 1.6 km/h 11.3 km/h 70 % 0 mm
22:47 20.2 °C 14.6 °C 1015.5 hPa South 4.8 km/h 11.3 km/h 70 % 0 mm
22:57 20.1 °C 14.7 °C 1015.5 hPa SE 3.2 km/h 12.9 km/h 71 % 0 mm
23:02 20.1 °C 14.9 °C 1015.5 hPa East 3.2 km/h 12.9 km/h 72 % 0 mm
23:07 20 °C 14.8 °C 1015.5 hPa SSE 4.8 km/h 9.7 km/h 72 % 0 mm
23:12 20 °C 14.8 °C 1015.5 hPa SE 4.8 km/h 9.7 km/h 72 % 0 mm
23:17 19.9 °C 14.7 °C 1015.5 hPa South 3.2 km/h 9.7 km/h 72 % 0 mm
23:22 19.9 °C 14.9 °C 1015.5 hPa SE 6.4 km/h 11.3 km/h 73 % 0 mm
23:27 19.9 °C 14.9 °C 1015.5 hPa South 3.2 km/h 12.9 km/h 73 % 0 mm
23:32 19.8 °C 14.8 °C 1015.5 hPa SE 9.7 km/h 12.9 km/h 73 % 0 mm
23:37 19.8 °C 15 °C 1015.5 hPa SSE 6.4 km/h 12.9 km/h 74 % 0 mm
23:42 19.8 °C 15 °C 1015.1 hPa ESE 6.4 km/h 11.3 km/h 74 % 0 mm
23:47 19.8 °C 15 °C 1015.1 hPa South 4.8 km/h 12.9 km/h 74 % 0 mm
23:52 19.8 °C 15 °C 1015.1 hPa SE 4.8 km/h 12.9 km/h 74 % 0 mm
23:57 19.7 °C 15.1 °C 1015.1 hPa ESE 3.2 km/h 12.9 km/h 75 % 0 mm
Spring, Texas: Villages of Bridgestone
Compliments of Weather Underground - 2.75 mb

Script developed by  Jim McMurry - jmcmurry@mwt.net Adapted for the template by  Wim van der Kuil - Leuven-Template.eu

You find our weather info also at:

UK Metoffice

WeatherCloud

Weather Underground

Mid-South Weather Network

AWEKAS

Citizen Weather Observer Program (CWOP)

HAMweather, WeatherForYou, PWS Weather

Equipment we use:

Weather-station
Davis Vantage Vue

Weather-program
Meteohub

Weather-server
Debian 7.9 x86 (Guest)

Provider
DreamHost

Davis Vantage Vue

Meteohub

Debian 7.9 x86 (Guest)

DreamHost